createdAt,value
2024-04-18T00:00:02.605Z,5.57
2024-04-18T00:01:02.880Z,5.59
2024-04-18T00:02:02.725Z,5.57
2024-04-18T00:03:02.785Z,5.57
2024-04-18T00:04:03.041Z,5.55
2024-04-18T00:05:03.048Z,5.52
2024-04-18T00:06:03.047Z,5.50
2024-04-18T00:07:03.125Z,5.48
2024-04-18T00:08:03.207Z,5.46
2024-04-18T00:09:03.274Z,5.46
2024-04-18T00:10:03.352Z,5.41
2024-04-18T00:11:03.497Z,5.43
2024-04-18T00:12:03.540Z,5.41
2024-04-18T00:13:03.628Z,5.41
2024-04-18T00:14:03.689Z,5.40
2024-04-18T00:15:03.755Z,5.37
2024-04-18T00:16:03.885Z,5.38
2024-04-18T00:17:03.952Z,5.38
2024-04-18T00:18:04.191Z,5.41
2024-04-18T00:19:04.158Z,5.41
2024-04-18T00:20:04.201Z,5.43
2024-04-18T00:21:04.320Z,5.43
2024-04-18T00:22:04.606Z,5.46
2024-04-18T00:23:04.438Z,5.46
2024-04-18T00:24:04.523Z,5.49
2024-04-18T00:25:04.600Z,5.50
2024-04-18T00:26:04.719Z,5.50
2024-04-18T00:27:04.755Z,5.52
2024-04-18T00:28:04.870Z,5.50
2024-04-18T00:29:04.932Z,5.50
2024-04-18T00:30:05.028Z,5.53
2024-04-18T00:31:05.136Z,5.52
2024-04-18T00:32:05.293Z,5.52
2024-04-18T00:33:05.300Z,5.52
2024-04-18T00:34:05.344Z,5.52
2024-04-18T00:35:05.420Z,5.53
2024-04-18T00:36:05.547Z,5.53
2024-04-18T00:37:05.661Z,5.53
2024-04-18T00:38:05.703Z,5.56
2024-04-18T00:39:05.794Z,5.53
2024-04-18T00:40:05.867Z,5.55
2024-04-18T00:41:05.976Z,5.53
2024-04-18T00:42:06.021Z,5.55
2024-04-18T00:43:06.091Z,5.55
2024-04-18T00:44:06.160Z,5.55
2024-04-18T00:45:06.221Z,5.55
2024-04-18T00:46:06.350Z,5.53
2024-04-18T00:47:06.389Z,5.52
2024-04-18T00:48:06.629Z,5.52
2024-04-18T00:49:06.657Z,5.50
2024-04-18T00:50:06.672Z,5.49
2024-04-18T00:51:06.773Z,5.46
2024-04-18T00:52:06.828Z,5.45
2024-04-18T00:53:06.903Z,5.43
2024-04-18T00:54:06.972Z,5.41
2024-04-18T00:55:07.059Z,5.40
2024-04-18T00:56:07.198Z,5.37
2024-04-18T00:57:07.268Z,5.35
2024-04-18T00:58:07.324Z,5.34
2024-04-18T00:59:07.395Z,5.32
2024-04-18T01:00:07.486Z,5.32
2024-04-18T01:01:07.611Z,5.30
2024-04-18T01:02:07.659Z,5.28
2024-04-18T01:03:07.736Z,5.28
2024-04-18T01:04:07.933Z,5.27
2024-04-18T01:05:07.991Z,5.25
2024-04-18T01:06:08.027Z,5.23
2024-04-18T01:07:08.057Z,5.22
2024-04-18T01:08:08.124Z,5.20
2024-04-18T01:09:08.190Z,5.17
2024-04-18T01:10:08.290Z,5.13
2024-04-18T01:11:08.404Z,5.12
2024-04-18T01:12:08.475Z,5.10
2024-04-18T01:13:08.537Z,5.09
2024-04-18T01:14:08.683Z,5.07
2024-04-18T01:15:08.721Z,5.04
2024-04-18T01:16:08.837Z,5.02
2024-04-18T01:17:08.905Z,4.99
2024-04-18T01:18:09.004Z,4.99
2024-04-18T01:19:09.116Z,4.98
2024-04-18T01:20:09.156Z,4.96
2024-04-18T01:21:09.281Z,4.96
2024-04-18T01:22:09.355Z,4.95
2024-04-18T01:23:09.424Z,4.92
2024-04-18T01:24:09.506Z,4.92
2024-04-18T01:25:09.593Z,4.89
2024-04-18T01:26:09.689Z,4.88
2024-04-18T01:27:09.711Z,4.86
2024-04-18T01:28:09.799Z,4.84
2024-04-18T01:29:09.860Z,4.80
2024-04-18T01:30:09.931Z,4.77
2024-04-18T01:31:10.035Z,4.76
2024-04-18T01:32:10.095Z,4.70
2024-04-18T01:33:10.239Z,4.65
2024-04-18T01:34:10.388Z,4.59
2024-04-18T01:35:10.314Z,4.58
2024-04-18T01:36:10.421Z,4.52
2024-04-18T01:37:10.451Z,4.50
2024-04-18T01:38:10.520Z,4.44
2024-04-18T01:39:10.625Z,4.44
2024-04-18T01:40:10.664Z,4.39
2024-04-18T01:41:10.812Z,4.37
2024-04-18T01:42:10.842Z,4.37
2024-04-18T01:43:10.939Z,4.33
2024-04-18T01:44:11.000Z,4.29
2024-04-18T01:45:11.095Z,4.29
2024-04-18T01:46:11.160Z,4.29
2024-04-18T01:47:11.206Z,4.25
2024-04-18T01:48:11.498Z,4.26
2024-04-18T01:49:11.444Z,4.26
2024-04-18T01:50:11.435Z,4.28
2024-04-18T01:51:11.548Z,4.25
2024-04-18T01:52:11.602Z,4.26
2024-04-18T01:53:11.671Z,4.28
2024-04-18T01:54:11.807Z,4.26
2024-04-18T01:55:11.837Z,4.26
2024-04-18T01:56:11.946Z,4.26
2024-04-18T01:57:12.014Z,4.26
2024-04-18T01:58:12.060Z,4.26
2024-04-18T01:59:12.144Z,4.25
2024-04-18T02:00:12.379Z,4.25
2024-04-18T02:01:12.463Z,4.24
2024-04-18T02:02:12.370Z,4.28
2024-04-18T02:03:12.588Z,4.26
2024-04-18T02:04:12.595Z,4.28
2024-04-18T02:05:12.701Z,4.29
2024-04-18T02:06:12.713Z,4.29
2024-04-18T02:07:12.732Z,4.28
2024-04-18T02:08:12.811Z,4.28
2024-04-18T02:09:12.915Z,4.26
2024-04-18T02:10:12.947Z,4.28
2024-04-18T02:11:13.111Z,4.26
2024-04-18T02:12:13.117Z,4.29
2024-04-18T02:13:13.200Z,4.32
2024-04-18T02:14:13.292Z,4.34
2024-04-18T02:15:13.400Z,4.33
2024-04-18T02:16:13.477Z,4.34
2024-04-18T02:17:13.566Z,4.34
2024-04-18T02:18:13.613Z,4.33
2024-04-18T02:19:13.666Z,4.34
2024-04-18T02:20:13.756Z,4.32
2024-04-18T02:21:13.875Z,4.32
2024-04-18T02:22:13.919Z,4.33
2024-04-18T02:23:13.981Z,4.34
2024-04-18T02:24:14.113Z,4.37
2024-04-18T02:25:14.144Z,4.42
2024-04-18T02:26:14.275Z,4.44
2024-04-18T02:27:14.348Z,4.47
2024-04-18T02:28:14.338Z,4.52
2024-04-18T02:29:14.494Z,4.52
2024-04-18T02:30:14.592Z,4.55
2024-04-18T02:31:14.606Z,4.57
2024-04-18T02:32:14.682Z,4.58
2024-04-18T02:33:14.860Z,4.59
2024-04-18T02:34:14.817Z,4.61
2024-04-18T02:35:14.890Z,4.59
2024-04-18T02:36:15.053Z,4.62
2024-04-18T02:37:15.067Z,4.64
2024-04-18T02:38:15.144Z,4.64
2024-04-18T02:39:15.271Z,4.64
2024-04-18T02:40:15.300Z,4.62
2024-04-18T02:41:15.384Z,4.62
2024-04-18T02:42:15.462Z,4.64
2024-04-18T02:43:15.541Z,4.67
2024-04-18T02:44:15.626Z,4.72
2024-04-18T02:45:15.714Z,4.70
2024-04-18T02:46:15.816Z,4.73
2024-04-18T02:47:15.935Z,4.76
2024-04-18T02:48:16.102Z,4.79
2024-04-18T02:49:16.021Z,4.79
2024-04-18T02:50:16.110Z,4.80
2024-04-18T02:51:16.275Z,4.80
2024-04-18T02:52:16.289Z,4.83
2024-04-18T02:53:16.384Z,4.80
2024-04-18T02:54:16.493Z,4.80
2024-04-18T02:55:16.534Z,4.80
2024-04-18T02:56:16.638Z,4.80
2024-04-18T02:57:16.740Z,4.80
2024-04-18T02:58:16.774Z,4.83
2024-04-18T02:59:16.848Z,4.80
2024-04-18T03:00:16.962Z,4.76
2024-04-18T03:01:17.143Z,4.76
2024-04-18T03:02:17.105Z,4.77
2024-04-18T03:03:17.199Z,4.77
2024-04-18T03:04:17.325Z,4.80
2024-04-18T03:05:17.376Z,4.80
2024-04-18T03:06:17.555Z,4.83
2024-04-18T03:07:17.545Z,4.83
2024-04-18T03:08:17.619Z,4.83
2024-04-18T03:09:17.762Z,4.84
2024-04-18T03:10:17.826Z,4.84
2024-04-18T03:11:17.956Z,4.84
2024-04-18T03:12:17.989Z,4.84
2024-04-18T03:13:18.081Z,4.84
2024-04-18T03:14:18.141Z,4.84
2024-04-18T03:15:18.264Z,4.84
2024-04-18T03:16:18.357Z,4.83
2024-04-18T03:17:18.422Z,4.83
2024-04-18T03:18:18.628Z,4.84
2024-04-18T03:19:18.716Z,4.86
2024-04-18T03:20:18.677Z,4.84
2024-04-18T03:21:18.829Z,4.86
2024-04-18T03:22:18.818Z,4.83
2024-04-18T03:23:18.898Z,4.80
2024-04-18T03:24:18.996Z,4.79
2024-04-18T03:25:19.029Z,4.76
2024-04-18T03:26:19.167Z,4.79
2024-04-18T03:27:19.250Z,4.79
2024-04-18T03:28:19.296Z,4.80
2024-04-18T03:29:19.378Z,4.83
2024-04-18T03:30:19.459Z,4.84
2024-04-18T03:31:19.561Z,4.83
2024-04-18T03:32:19.617Z,4.83
2024-04-18T03:33:19.842Z,4.84
2024-04-18T03:34:19.765Z,4.84
2024-04-18T03:35:19.844Z,4.88
2024-04-18T03:36:19.994Z,4.89
2024-04-18T03:37:20.008Z,4.89
2024-04-18T03:38:20.092Z,4.91
2024-04-18T03:39:20.203Z,4.94
2024-04-18T03:40:20.285Z,4.94
2024-04-18T03:41:20.413Z,4.96
2024-04-18T03:42:20.472Z,4.95
2024-04-18T03:43:20.532Z,4.99
2024-04-18T03:44:20.647Z,4.98
2024-04-18T03:45:20.768Z,5.01
2024-04-18T03:46:20.787Z,4.99
2024-04-18T03:47:20.890Z,5.01
2024-04-18T03:48:21.006Z,5.01
2024-04-18T03:49:21.026Z,4.99
2024-04-18T03:50:21.091Z,5.01
2024-04-18T03:51:21.216Z,5.02
2024-04-18T03:52:21.267Z,5.01
2024-04-18T03:53:21.363Z,5.02
2024-04-18T03:54:21.529Z,5.01
2024-04-18T03:55:21.627Z,5.02
2024-04-18T03:56:21.673Z,5.04
2024-04-18T03:57:21.703Z,5.02
2024-04-18T03:58:21.765Z,5.04
2024-04-18T03:59:21.846Z,5.02
2024-04-18T04:00:21.927Z,5.01
2024-04-18T04:01:22.116Z,5.02
2024-04-18T04:02:22.102Z,5.01
2024-04-18T04:03:22.197Z,5.02
2024-04-18T04:04:22.405Z,5.04
2024-04-18T04:05:22.290Z,5.04
2024-04-18T04:06:22.564Z,5.04
2024-04-18T04:07:22.446Z,5.07
2024-04-18T04:08:22.499Z,5.05
2024-04-18T04:09:22.617Z,5.04
2024-04-18T04:10:22.708Z,5.02
2024-04-18T04:11:22.901Z,5.04
2024-04-18T04:12:22.894Z,5.02
2024-04-18T04:13:22.893Z,5.04
2024-04-18T04:14:22.946Z,5.02
2024-04-18T04:15:23.027Z,5.04
2024-04-18T04:16:23.158Z,5.04
2024-04-18T04:17:23.181Z,5.04
2024-04-18T04:18:23.362Z,5.04
2024-04-18T04:19:23.384Z,5.02
2024-04-18T04:20:23.425Z,5.02
2024-04-18T04:21:23.651Z,5.02
2024-04-18T04:22:23.632Z,5.02
2024-04-18T04:23:23.698Z,4.99
2024-04-18T04:24:23.822Z,5.01
2024-04-18T04:25:23.894Z,4.99
2024-04-18T04:26:23.966Z,4.99
2024-04-18T04:27:24.025Z,4.99
2024-04-18T04:28:24.075Z,5.01
2024-04-18T04:29:24.199Z,5.02
2024-04-18T04:30:24.284Z,5.04
2024-04-18T04:31:24.335Z,5.04
2024-04-18T04:32:24.579Z,5.04
2024-04-18T04:33:24.470Z,5.05
2024-04-18T04:34:24.546Z,5.05
2024-04-18T04:35:24.626Z,5.05
2024-04-18T04:36:25.693Z,5.09
2024-04-18T04:37:24.775Z,5.09
2024-04-18T04:38:24.872Z,5.09
2024-04-18T04:39:24.973Z,5.10
2024-04-18T04:40:25.065Z,5.12
2024-04-18T04:41:25.183Z,5.10
2024-04-18T04:42:25.251Z,5.12
2024-04-18T04:43:25.318Z,5.12
2024-04-18T04:44:25.366Z,5.13
2024-04-18T04:45:25.443Z,5.13
2024-04-18T04:46:25.554Z,5.13
2024-04-18T04:47:25.588Z,5.13
2024-04-18T04:48:25.817Z,5.13
2024-04-18T04:49:25.780Z,5.13
2024-04-18T04:50:25.822Z,5.12
2024-04-18T04:51:25.955Z,5.12
2024-04-18T04:52:25.965Z,5.12
2024-04-18T04:53:26.052Z,5.12
2024-04-18T04:54:26.128Z,5.13
2024-04-18T04:55:26.210Z,5.12
2024-04-18T04:56:26.310Z,5.14
2024-04-18T04:57:26.377Z,5.17
2024-04-18T04:58:26.440Z,5.19
2024-04-18T04:59:26.511Z,5.19
2024-04-18T05:00:26.653Z,5.17
2024-04-18T05:01:26.732Z,5.19
2024-04-18T05:02:26.797Z,5.20
2024-04-18T05:03:26.945Z,5.22
2024-04-18T05:04:26.959Z,5.23
2024-04-18T05:05:27.050Z,5.23
2024-04-18T05:06:27.180Z,5.25
2024-04-18T05:07:27.211Z,5.23
2024-04-18T05:08:27.291Z,5.25
2024-04-18T05:09:27.445Z,5.25
2024-04-18T05:10:27.450Z,5.27
2024-04-18T05:11:27.587Z,5.28
2024-04-18T05:12:27.671Z,5.28
2024-04-18T05:13:27.718Z,5.30
2024-04-18T05:14:27.796Z,5.30
2024-04-18T05:15:27.917Z,5.31
2024-04-18T05:16:28.029Z,5.30
2024-04-18T05:17:28.061Z,5.30
2024-04-18T05:18:28.225Z,5.31
2024-04-18T05:19:28.218Z,5.31
2024-04-18T05:20:28.304Z,5.30
2024-04-18T05:21:28.476Z,5.30
2024-04-18T05:22:28.460Z,5.30
2024-04-18T05:23:28.574Z,5.28
2024-04-18T05:24:28.660Z,5.28
2024-04-18T05:25:28.661Z,5.25
2024-04-18T05:26:28.777Z,5.27
2024-04-18T05:27:28.871Z,5.27
2024-04-18T05:28:28.953Z,5.28
2024-04-18T05:29:29.002Z,5.30
2024-04-18T05:30:29.149Z,5.30
2024-04-18T05:31:29.175Z,5.30
2024-04-18T05:32:29.326Z,5.31
2024-04-18T05:33:29.501Z,5.32
2024-04-18T05:34:29.418Z,5.32
2024-04-18T05:35:29.487Z,5.32
2024-04-18T05:36:29.565Z,5.34
2024-04-18T05:37:29.644Z,5.35
2024-04-18T05:38:29.778Z,5.35
2024-04-18T05:39:29.855Z,5.37
2024-04-18T05:40:29.917Z,5.38
2024-04-18T05:41:29.998Z,5.37
2024-04-18T05:42:30.080Z,5.37
2024-04-18T05:43:31.749Z,5.35
2024-04-18T05:44:30.202Z,5.35
2024-04-18T05:45:30.359Z,5.34
2024-04-18T05:46:30.371Z,5.34
2024-04-18T05:47:30.573Z,5.34
2024-04-18T05:48:30.524Z,5.31
2024-04-18T05:49:30.614Z,5.32
2024-04-18T05:50:30.701Z,5.30
2024-04-18T05:51:30.818Z,5.28
2024-04-18T05:52:30.898Z,5.27
2024-04-18T05:53:30.942Z,5.25
2024-04-18T05:54:31.024Z,5.20
2024-04-18T05:55:31.096Z,5.19
2024-04-18T05:56:31.245Z,5.17
2024-04-18T05:57:31.394Z,5.13
2024-04-18T05:58:31.364Z,5.13
2024-04-18T05:59:31.445Z,5.12
2024-04-18T06:00:31.629Z,5.10
2024-04-18T06:01:31.698Z,5.09
2024-04-18T06:02:31.699Z,5.09
2024-04-18T06:03:31.799Z,5.09
2024-04-18T06:04:31.825Z,5.07
2024-04-18T06:05:31.918Z,5.09
2024-04-18T06:06:32.008Z,5.05
2024-04-18T06:07:32.091Z,5.05
2024-04-18T06:08:32.143Z,5.04
2024-04-18T06:09:32.229Z,5.02
2024-04-18T06:10:32.297Z,5.02
2024-04-18T06:11:32.385Z,5.02
2024-04-18T06:12:32.522Z,5.01
2024-04-18T06:13:32.554Z,5.01
2024-04-18T06:14:32.631Z,5.01
2024-04-18T06:15:32.750Z,5.01
2024-04-18T06:16:32.807Z,5.01
2024-04-18T06:17:32.912Z,4.99
2024-04-18T06:18:33.057Z,4.99
2024-04-18T06:19:33.050Z,4.98
2024-04-18T06:20:33.119Z,4.99
2024-04-18T06:21:33.210Z,5.01
2024-04-18T06:22:33.338Z,5.01
2024-04-18T06:23:33.364Z,5.02
2024-04-18T06:24:33.478Z,5.04
2024-04-18T06:25:33.511Z,5.04
2024-04-18T06:26:33.573Z,5.05
2024-04-18T06:27:33.717Z,5.04
2024-04-18T06:28:33.728Z,5.05
2024-04-18T06:29:33.847Z,5.04
2024-04-18T06:30:34.052Z,5.05
2024-04-18T06:31:34.148Z,5.04
2024-04-18T06:32:34.270Z,5.04
2024-04-18T06:33:34.481Z,5.05
2024-04-18T06:34:34.365Z,5.07
2024-04-18T06:35:34.320Z,5.09
2024-04-18T06:36:34.550Z,5.09
2024-04-18T06:37:34.608Z,5.09
2024-04-18T06:38:34.573Z,5.09
2024-04-18T06:39:34.701Z,5.12
2024-04-18T06:40:34.760Z,5.12
2024-04-18T06:41:34.812Z,5.14
2024-04-18T06:42:34.971Z,5.13
2024-04-18T06:43:34.986Z,5.17
2024-04-18T06:44:35.064Z,5.19
2024-04-18T06:45:35.149Z,5.20
2024-04-18T06:46:45.224Z,5.22
2024-04-18T06:47:35.380Z,5.23
2024-04-18T06:48:35.551Z,5.23
2024-04-18T06:49:35.497Z,5.27
2024-04-18T06:50:35.569Z,5.27
2024-04-18T06:51:35.677Z,5.30
2024-04-18T06:52:35.794Z,5.28
2024-04-18T06:53:35.802Z,5.31
2024-04-18T06:54:35.927Z,5.30
2024-04-18T06:55:35.989Z,5.30
2024-04-18T06:56:36.053Z,5.31
2024-04-18T06:57:36.163Z,5.28
2024-04-18T06:58:36.189Z,5.28
2024-04-18T06:59:36.263Z,5.28
2024-04-18T07:00:36.354Z,5.28
2024-04-18T07:01:36.452Z,5.28
2024-04-18T07:02:36.570Z,5.28
2024-04-18T07:03:36.636Z,5.30
2024-04-18T07:04:36.716Z,5.28
2024-04-18T07:05:36.722Z,5.28
2024-04-18T07:06:36.840Z,5.30
2024-04-18T07:07:36.922Z,5.30
2024-04-18T07:08:36.988Z,5.32
2024-04-18T07:09:37.123Z,5.30
2024-04-18T07:10:37.131Z,5.31
2024-04-18T07:11:37.257Z,5.31
2024-04-18T07:18:30.115Z,5.01
2024-04-18T07:19:31.102Z,4.99
2024-04-18T07:20:31.168Z,5.01
2024-04-18T07:21:31.262Z,5.02
2024-04-18T07:22:31.300Z,5.07
2024-04-18T07:23:31.359Z,5.10
2024-04-18T07:24:31.430Z,5.14
2024-04-18T07:25:31.519Z,5.16
2024-04-18T07:26:31.603Z,5.19
2024-04-18T07:27:31.745Z,5.20
2024-04-18T07:28:31.759Z,5.20
2024-04-18T07:29:31.830Z,5.22
2024-04-18T07:30:31.951Z,5.23
2024-04-18T07:31:32.012Z,5.25
2024-04-18T07:32:32.183Z,5.27
2024-04-18T07:33:32.278Z,5.27
2024-04-18T07:34:32.307Z,5.30
2024-04-18T07:35:32.352Z,5.30
2024-04-18T07:36:32.427Z,5.32
2024-04-18T07:37:32.984Z,5.32
2024-04-18T07:38:32.551Z,5.34
2024-04-18T07:39:32.749Z,5.37
2024-04-18T07:40:32.860Z,5.35
2024-04-18T07:41:32.815Z,5.37
2024-04-18T07:42:33.006Z,5.38
2024-04-18T07:43:32.973Z,5.40
2024-04-18T07:44:33.087Z,5.40
2024-04-18T07:45:33.139Z,5.41
2024-04-18T07:46:33.287Z,5.41
2024-04-18T07:47:33.403Z,5.43
2024-04-18T07:48:33.388Z,5.43
2024-04-18T07:49:33.462Z,5.45
2024-04-18T07:50:40.768Z,5.45
2024-04-18T07:51:33.628Z,5.43
2024-04-18T07:52:33.699Z,5.43
2024-04-18T07:53:33.762Z,5.43
2024-04-18T07:54:33.822Z,5.45
2024-04-18T07:55:33.864Z,5.43
2024-04-18T07:56:34.440Z,5.43
2024-04-18T07:57:34.384Z,5.45
2024-04-18T07:58:34.807Z,5.46
2024-04-18T07:59:34.538Z,5.49
2024-04-18T08:00:36.023Z,5.48
2024-04-18T08:01:36.515Z,5.50
2024-04-18T08:02:35.938Z,5.52
2024-04-18T08:03:38.762Z,5.52
2024-04-18T08:04:52.147Z,5.55
2024-04-18T08:05:37.077Z,5.53
2024-04-18T08:06:37.016Z,5.56
2024-04-18T08:07:37.302Z,5.56
2024-04-18T08:08:37.378Z,5.56
2024-04-18T08:09:38.444Z,5.56
2024-04-18T08:10:45.853Z,5.56
2024-04-18T08:12:38.401Z,5.56
2024-04-18T08:13:38.306Z,5.56
2024-04-18T08:14:38.473Z,5.56
2024-04-18T08:16:35.702Z,5.57
2024-04-18T08:17:35.782Z,5.57
2024-04-18T08:18:35.879Z,5.59
2024-04-18T08:19:35.884Z,5.60
2024-04-18T08:20:35.982Z,5.63
2024-04-18T08:21:36.107Z,5.63
2024-04-18T08:22:36.177Z,5.63
2024-04-18T08:23:36.299Z,5.64
2024-04-18T08:24:36.377Z,5.66
2024-04-18T08:25:36.434Z,5.66
2024-04-18T08:26:36.528Z,5.66
2024-04-18T08:27:36.765Z,5.68
2024-04-18T08:28:36.716Z,5.68
2024-04-18T08:29:36.820Z,5.70
2024-04-18T08:30:37.054Z,5.71
2024-04-18T08:31:37.037Z,5.71
2024-04-18T08:32:37.071Z,5.73
2024-04-18T08:33:37.413Z,5.73
2024-04-18T08:34:40.159Z,5.73
2024-04-18T08:35:37.326Z,5.73
2024-04-18T08:36:37.418Z,5.74
2024-04-18T08:37:37.473Z,5.74
2024-04-18T08:38:37.558Z,5.74
2024-04-18T08:39:37.624Z,5.75
2024-04-18T08:40:37.721Z,5.77
2024-04-18T08:41:41.075Z,5.75
2024-04-18T08:42:37.921Z,5.77
2024-04-18T08:43:37.977Z,5.75
2024-04-18T08:44:38.059Z,5.75
2024-04-18T08:45:38.196Z,5.75
2024-04-18T08:46:38.182Z,5.77
2024-04-18T08:47:38.362Z,5.75
2024-04-18T08:48:38.621Z,5.75
2024-04-18T08:49:38.429Z,5.77
2024-04-18T08:50:38.523Z,5.78
2024-04-18T08:51:38.689Z,5.77
2024-04-18T08:52:39.030Z,5.78
2024-04-18T08:53:38.787Z,5.78
2024-04-18T08:54:39.150Z,5.78
2024-04-18T08:55:38.948Z,5.82
2024-04-18T08:56:39.130Z,5.82
2024-04-18T08:57:39.116Z,5.83
2024-04-18T08:58:39.213Z,5.85
2024-04-18T08:59:39.244Z,5.86
2024-04-18T09:00:39.359Z,5.86
2024-04-18T09:01:39.420Z,5.88
2024-04-18T09:02:39.556Z,5.88
2024-04-18T09:03:39.666Z,5.88
2024-04-18T09:04:39.718Z,5.88
2024-04-18T09:05:41.643Z,5.91
2024-04-18T09:06:39.885Z,5.89
2024-04-18T09:07:39.962Z,5.93
2024-04-18T09:08:40.056Z,5.92
2024-04-18T09:09:40.135Z,5.93
2024-04-18T09:10:40.177Z,5.93
2024-04-18T09:11:40.226Z,5.95
2024-04-18T09:12:40.361Z,5.96
2024-04-18T09:13:40.442Z,5.95
2024-04-18T09:14:40.519Z,5.95
2024-04-18T09:15:40.615Z,5.95
2024-04-18T09:16:40.685Z,5.93
2024-04-18T09:17:40.830Z,5.95
2024-04-18T09:18:41.019Z,5.95
2024-04-18T09:19:40.947Z,5.95
2024-04-18T09:20:41.038Z,5.95
2024-04-18T09:21:41.171Z,5.96
2024-04-18T09:22:41.197Z,5.96
2024-04-18T09:23:41.284Z,5.98
2024-04-18T09:24:41.410Z,5.96
2024-04-18T09:25:43.540Z,5.96
2024-04-18T09:26:41.530Z,5.96
2024-04-18T09:27:41.605Z,5.98
2024-04-18T09:28:41.690Z,5.98
2024-04-18T09:29:41.751Z,5.98
2024-04-18T09:30:41.876Z,6.00
2024-04-18T09:31:43.708Z,6.00
2024-04-18T09:32:42.051Z,6.01
2024-04-18T09:33:42.288Z,6.03
2024-04-18T09:34:42.134Z,6.01
2024-04-18T09:35:42.245Z,6.01
2024-04-18T09:36:42.347Z,6.04
2024-04-18T09:37:46.996Z,6.04
2024-04-18T09:38:42.540Z,6.04
2024-04-18T09:39:42.623Z,6.06
2024-04-18T09:40:42.697Z,6.03
2024-04-18T09:41:42.756Z,6.04
2024-04-18T09:42:42.899Z,6.07
2024-04-18T09:43:43.035Z,6.06
2024-04-18T09:44:43.020Z,6.06
2024-04-18T09:45:43.192Z,6.06
2024-04-18T09:46:43.158Z,6.06
2024-04-18T09:47:43.263Z,6.07
2024-04-18T09:48:43.460Z,6.06
2024-04-18T09:49:43.452Z,6.06
2024-04-18T09:50:43.453Z,6.06
2024-04-18T09:51:43.563Z,6.06
2024-04-18T09:52:43.622Z,6.07
2024-04-18T09:53:43.702Z,6.07
2024-04-18T09:54:43.886Z,6.06
2024-04-18T09:55:43.834Z,6.06
2024-04-18T09:56:43.902Z,6.07
2024-04-18T09:57:43.966Z,6.09
2024-04-18T09:58:44.092Z,6.09
2024-04-18T09:59:44.160Z,6.09
2024-04-18T10:00:44.273Z,6.09
2024-04-18T10:01:44.328Z,6.09
2024-04-18T10:02:44.415Z,6.10
2024-04-18T10:03:44.570Z,6.11
2024-04-18T10:04:44.649Z,6.10
2024-04-18T10:05:44.657Z,6.10
2024-04-18T10:06:44.815Z,6.13
2024-04-18T10:07:44.808Z,6.13
2024-04-18T10:08:44.927Z,6.11
2024-04-18T10:09:45.056Z,6.13
2024-04-18T10:10:45.144Z,6.13
2024-04-18T10:11:45.232Z,6.13
2024-04-18T10:12:45.318Z,6.16
2024-04-18T10:13:45.349Z,6.16
2024-04-18T10:14:45.396Z,6.18
2024-04-18T10:15:45.459Z,6.18
2024-04-18T10:16:45.517Z,6.19
2024-04-18T10:17:45.688Z,6.21
2024-04-18T10:18:46.007Z,6.21
2024-04-18T10:19:45.755Z,6.21
2024-04-18T10:20:45.871Z,6.21
2024-04-18T10:22:47.927Z,6.18
2024-04-18T10:23:46.129Z,6.18
2024-04-18T10:24:46.205Z,6.21
2024-04-18T10:25:46.298Z,6.19
2024-04-18T10:26:46.340Z,6.22
2024-04-18T10:27:46.400Z,6.22
2024-04-18T10:28:46.517Z,6.22
2024-04-18T10:29:46.580Z,6.22
2024-04-18T10:30:46.663Z,6.25
2024-04-18T10:31:46.752Z,6.26
2024-04-18T10:32:47.017Z,6.28
2024-04-18T10:33:47.068Z,6.28
2024-04-18T10:34:47.056Z,6.29
2024-04-18T10:35:47.154Z,6.29
2024-04-18T10:36:47.176Z,6.29
2024-04-18T10:37:47.251Z,6.29
2024-04-18T10:38:47.354Z,6.32
2024-04-18T10:39:47.422Z,6.30
2024-04-18T10:40:47.465Z,6.32
2024-04-18T10:41:47.565Z,6.35
2024-04-18T10:42:47.680Z,6.33
2024-04-18T10:43:47.756Z,6.36
2024-04-18T10:44:47.789Z,6.36
2024-04-18T10:45:47.935Z,6.38
2024-04-18T10:46:47.990Z,6.40
2024-04-18T10:47:48.068Z,6.40
2024-04-18T10:48:48.245Z,6.40
2024-04-18T10:49:48.249Z,6.43
2024-04-18T10:50:48.291Z,6.43
2024-04-18T10:51:48.391Z,6.44
2024-04-18T10:52:48.495Z,6.47
2024-04-18T10:53:48.616Z,6.47
2024-04-18T10:54:48.667Z,6.47
2024-04-18T10:55:48.776Z,6.47
2024-04-18T10:56:48.828Z,6.47
2024-04-18T10:57:50.607Z,6.47
2024-04-18T10:58:49.008Z,6.47
2024-04-18T10:59:49.315Z,6.46
2024-04-18T11:00:49.300Z,6.47
2024-04-18T11:01:49.301Z,6.46
2024-04-18T11:02:49.344Z,6.44
2024-04-18T11:03:49.633Z,6.43
2024-04-18T11:04:49.566Z,6.43
2024-04-18T11:05:49.609Z,6.41
2024-04-18T11:06:49.742Z,6.43
2024-04-18T11:07:49.797Z,6.44
2024-04-18T11:08:49.882Z,6.44
2024-04-18T11:09:49.925Z,6.46
2024-04-18T11:10:50.085Z,6.46
2024-04-18T11:11:50.100Z,6.47
2024-04-18T11:12:50.192Z,6.48
2024-04-18T11:13:50.331Z,6.48
2024-04-18T11:14:50.380Z,6.50
2024-04-18T11:15:50.482Z,6.48
2024-04-18T11:16:50.567Z,6.48
2024-04-18T11:17:50.675Z,6.47
2024-04-18T11:18:50.880Z,6.47
2024-04-18T11:19:50.828Z,6.46
2024-04-18T11:20:50.932Z,6.44
2024-04-18T11:21:51.006Z,6.44
2024-04-18T11:22:57.222Z,6.43
2024-04-18T11:23:51.822Z,6.43
2024-04-18T11:24:51.333Z,6.43
2024-04-18T11:25:51.370Z,6.40
2024-04-18T11:26:51.470Z,6.36
2024-04-18T11:27:51.551Z,6.33
2024-04-18T11:28:51.647Z,6.33
2024-04-18T11:29:51.699Z,6.32
2024-04-18T11:30:51.790Z,6.32
2024-04-18T11:31:51.901Z,6.30
2024-04-18T11:32:52.082Z,6.29
2024-04-18T11:33:52.084Z,6.28
2024-04-18T11:34:57.227Z,6.28
2024-04-18T11:35:52.218Z,6.28
2024-04-18T11:36:52.274Z,6.28
2024-04-18T11:37:52.381Z,6.28
2024-04-18T11:38:52.429Z,6.26
2024-04-18T11:39:52.522Z,6.28
2024-04-18T11:40:52.631Z,6.28
2024-04-18T11:41:52.700Z,6.29
2024-04-18T11:42:52.823Z,6.30
2024-04-18T11:43:52.879Z,6.33
2024-04-18T11:44:52.982Z,6.32
2024-04-18T11:45:53.082Z,6.33
2024-04-18T11:46:53.195Z,6.35
2024-04-18T11:47:53.343Z,6.35
2024-04-18T11:48:53.524Z,6.36
2024-04-18T11:49:53.439Z,6.38
2024-04-18T11:50:53.517Z,6.38
2024-04-18T11:51:53.622Z,6.38
2024-04-18T11:52:53.711Z,6.36
2024-04-18T11:53:53.810Z,6.38
2024-04-18T11:54:53.827Z,6.40
2024-04-18T11:55:55.665Z,6.43
2024-04-18T11:56:54.016Z,6.41
2024-04-18T11:57:54.153Z,6.40
2024-04-18T11:58:54.219Z,6.40
2024-04-18T11:59:54.292Z,6.41
2024-04-18T12:00:54.385Z,6.43
2024-04-18T12:01:54.498Z,6.43
2024-04-18T12:02:54.646Z,6.44
2024-04-18T12:03:54.752Z,6.47
2024-04-18T12:04:54.718Z,6.48
2024-04-18T12:05:54.840Z,6.50
2024-04-18T12:06:54.909Z,6.51
2024-04-18T12:07:54.989Z,6.53
2024-04-18T12:08:55.704Z,6.53
2024-04-18T12:09:55.135Z,6.53
2024-04-18T12:10:55.237Z,6.53
2024-04-18T12:11:55.349Z,6.50
2024-04-18T12:12:55.443Z,6.47
2024-04-18T12:13:55.549Z,6.44
2024-04-18T12:14:55.640Z,6.35
2024-04-18T12:15:55.702Z,6.32
2024-04-18T12:16:55.744Z,6.28
2024-04-18T12:17:55.814Z,6.26
2024-04-18T12:18:55.865Z,6.22
2024-04-18T12:19:55.955Z,6.21
2024-04-18T12:20:56.044Z,6.19
2024-04-18T12:21:56.154Z,6.16
2024-04-18T12:22:56.224Z,6.14
2024-04-18T12:23:56.333Z,6.13
2024-04-18T12:24:56.394Z,6.10
2024-04-18T12:25:56.446Z,6.10
2024-04-18T12:26:56.586Z,6.09
2024-04-18T12:27:56.694Z,6.07
2024-04-18T12:28:56.712Z,6.06
2024-04-18T12:29:56.809Z,6.03
2024-04-18T12:30:56.882Z,6.01
2024-04-18T12:31:57.019Z,5.98
2024-04-18T12:32:57.068Z,5.93
2024-04-18T12:33:57.149Z,5.89
2024-04-18T12:34:57.183Z,5.86
2024-04-18T12:35:57.286Z,5.83
2024-04-18T12:36:57.336Z,5.82
2024-04-18T12:37:57.442Z,5.77
2024-04-18T12:38:57.516Z,5.74
2024-04-18T12:39:57.588Z,5.74
2024-04-18T12:40:57.697Z,5.73
2024-04-18T12:41:57.775Z,5.71
2024-04-18T12:42:57.889Z,5.68
2024-04-18T12:43:58.027Z,5.70
2024-04-18T12:44:58.059Z,5.68
2024-04-18T12:46:06.682Z,5.68
2024-04-18T12:46:58.231Z,5.67
2024-04-18T12:47:58.428Z,5.66
2024-04-18T12:48:58.671Z,5.68
2024-04-18T12:49:58.571Z,5.68
2024-04-18T12:50:58.557Z,5.68
2024-04-18T12:51:58.649Z,5.70
2024-04-18T12:52:58.755Z,5.70
2024-04-18T12:53:58.806Z,5.68
2024-04-18T12:54:58.839Z,5.70
2024-04-18T12:55:58.919Z,5.70
2024-04-18T12:56:59.009Z,5.71
2024-04-18T12:57:59.167Z,5.70
2024-04-18T12:58:59.177Z,5.70
2024-04-18T12:59:59.248Z,5.70
2024-04-18T13:00:59.580Z,5.71
2024-04-18T13:01:59.439Z,5.68
2024-04-18T13:02:59.676Z,5.70
2024-04-18T13:03:59.682Z,5.71
2024-04-18T13:04:59.729Z,5.71
2024-04-18T13:05:59.816Z,5.73
2024-04-18T13:06:59.923Z,5.73
2024-04-18T13:07:59.976Z,5.73
2024-04-18T13:09:00.105Z,5.74
2024-04-18T13:10:00.245Z,5.75
2024-04-18T13:11:00.321Z,5.77
2024-04-18T13:12:00.315Z,5.77
2024-04-18T13:13:00.367Z,5.77
2024-04-18T13:14:00.454Z,5.77
2024-04-18T13:15:00.590Z,5.77
2024-04-18T13:16:03.059Z,5.77
2024-04-18T13:17:00.744Z,5.81
2024-04-18T13:18:00.891Z,5.82
2024-04-18T13:19:00.987Z,5.81
2024-04-18T13:20:01.080Z,5.81
2024-04-18T13:21:01.255Z,5.81
2024-04-18T13:22:01.212Z,5.81
2024-04-18T13:23:01.240Z,5.82
2024-04-18T13:24:01.350Z,5.83
2024-04-18T13:25:01.455Z,5.83
2024-04-18T13:26:01.532Z,5.83
2024-04-18T13:27:01.632Z,5.81
2024-04-18T13:28:01.667Z,5.83